createdAt,value
2023-02-09T00:01:15.345Z,23.22
2023-02-09T00:04:37.110Z,23.20
2023-02-09T00:07:59.117Z,23.17
2023-02-09T00:11:46.456Z,23.15
2023-02-09T00:15:11.215Z,23.14
2023-02-09T00:18:34.047Z,23.12
2023-02-09T00:21:55.854Z,23.11
2023-02-09T00:25:17.839Z,23.08
2023-02-09T00:28:39.623Z,23.08
2023-02-09T00:32:01.442Z,23.06
2023-02-09T00:35:23.359Z,23.05
2023-02-09T00:38:45.230Z,23.04
2023-02-09T00:42:07.094Z,23.02
2023-02-09T00:45:29.472Z,23.01
2023-02-09T00:48:51.274Z,23.01
2023-02-09T00:52:13.035Z,23.01
2023-02-09T00:55:35.294Z,23.01
2023-02-09T00:58:57.143Z,23.00
2023-02-09T01:02:20.012Z,23.00
2023-02-09T01:05:42.900Z,23.01
2023-02-09T01:09:06.106Z,23.01
2023-02-09T01:12:28.014Z,22.98
2023-02-09T01:15:49.869Z,22.96
2023-02-09T01:19:15.631Z,22.95
2023-02-09T01:22:37.925Z,22.93
2023-02-09T01:26:04.161Z,22.92
2023-02-09T01:29:28.588Z,22.91
2023-02-09T01:32:50.463Z,22.88
2023-02-09T01:36:12.294Z,22.87
2023-02-09T01:39:34.082Z,22.87
2023-02-09T01:42:55.852Z,22.85
2023-02-09T01:46:17.854Z,22.84
2023-02-09T01:49:39.762Z,22.83
2023-02-09T01:53:02.895Z,22.81
2023-02-09T01:56:28.999Z,22.81
2023-02-09T02:00:14.476Z,22.79
2023-02-09T02:03:36.229Z,22.78
2023-02-09T02:07:08.744Z,22.78
2023-02-09T02:10:31.522Z,22.76
2023-02-09T02:13:53.375Z,22.75
2023-02-09T02:17:33.753Z,22.73
2023-02-09T02:21:32.830Z,22.72
2023-02-09T02:25:48.286Z,22.71
2023-02-09T02:29:34.089Z,22.71
2023-02-09T02:33:03.648Z,22.73
2023-02-09T02:36:53.392Z,22.70
2023-02-09T02:40:45.313Z,22.68
2023-02-09T02:44:12.816Z,22.65
2023-02-09T02:47:36.921Z,22.65
2023-02-09T02:51:12.672Z,22.64
2023-02-09T02:54:41.373Z,22.63
2023-02-09T02:58:06.927Z,22.62
2023-02-09T03:01:34.349Z,22.59
2023-02-09T03:04:58.242Z,22.59
2023-02-09T03:08:20.064Z,22.57
2023-02-09T03:11:44.830Z,22.57
2023-02-09T03:15:21.551Z,22.54
2023-02-09T03:18:59.718Z,22.51
2023-02-09T03:22:58.162Z,22.49
2023-02-09T03:26:28.083Z,22.47
2023-02-09T03:29:54.196Z,22.47
2023-02-09T03:33:24.964Z,22.47
2023-02-09T03:36:51.583Z,22.45
2023-02-09T03:40:13.721Z,22.44
2023-02-09T03:43:55.033Z,22.42
2023-02-09T03:47:16.796Z,22.41
2023-02-09T03:50:38.558Z,22.41
2023-02-09T03:54:00.377Z,22.40
2023-02-09T03:57:22.258Z,22.40
2023-02-09T04:00:44.392Z,22.40
2023-02-09T04:04:06.700Z,22.39
2023-02-09T04:07:28.490Z,22.39
2023-02-09T04:10:50.318Z,22.37
2023-02-09T04:14:12.436Z,22.36
2023-02-09T04:17:34.191Z,22.35
2023-02-09T04:20:55.998Z,22.35
2023-02-09T04:24:17.996Z,22.35
2023-02-09T04:27:39.859Z,22.33
2023-02-09T04:31:01.816Z,22.32
2023-02-09T04:34:24.715Z,22.32
2023-02-09T04:37:46.570Z,22.31
2023-02-09T04:41:09.916Z,22.31
2023-02-09T04:44:31.721Z,22.30
2023-02-09T04:47:53.571Z,22.30
2023-02-09T04:51:15.645Z,22.29
2023-02-09T04:54:37.414Z,22.28
2023-02-09T04:58:18.033Z,22.26
2023-02-09T05:01:39.831Z,22.26
2023-02-09T05:05:01.596Z,22.26
2023-02-09T05:08:23.882Z,22.27
2023-02-09T05:11:45.659Z,22.24
2023-02-09T05:15:07.756Z,22.25
2023-02-09T05:18:29.614Z,22.22
2023-02-09T05:21:51.424Z,22.23
2023-02-09T05:25:13.241Z,22.22
2023-02-09T05:28:35.184Z,22.21
2023-02-09T05:31:56.988Z,22.22
2023-02-09T05:35:19.184Z,22.21
2023-02-09T05:38:41.054Z,22.21
2023-02-09T05:42:18.063Z,22.20
2023-02-09T05:45:40.084Z,22.20
2023-02-09T05:49:01.971Z,22.20
2023-02-09T05:52:23.753Z,22.18
2023-02-09T05:55:46.663Z,22.17
2023-02-09T05:59:08.480Z,22.17
2023-02-09T06:02:30.490Z,22.16
2023-02-09T06:05:52.340Z,22.15
2023-02-09T06:09:14.259Z,22.16
2023-02-09T06:12:36.044Z,22.13
2023-02-09T06:15:58.156Z,22.13
2023-02-09T06:19:21.483Z,22.12
2023-02-09T06:22:43.249Z,22.10
2023-02-09T06:26:09.778Z,22.10
2023-02-09T06:29:32.028Z,22.08
2023-02-09T06:32:53.781Z,22.07
2023-02-09T06:36:15.638Z,22.05
2023-02-09T06:39:37.480Z,22.05
2023-02-09T06:42:59.364Z,22.02
2023-02-09T06:46:21.288Z,22.01
2023-02-09T06:49:43.126Z,22.00
2023-02-09T06:53:05.398Z,22.00
2023-02-09T06:56:27.294Z,21.96
2023-02-09T06:59:49.226Z,21.94
2023-02-09T07:03:11.552Z,21.91
2023-02-09T07:06:33.349Z,21.89
2023-02-09T07:09:55.124Z,21.85
2023-02-09T07:13:17.297Z,21.80
2023-02-09T07:16:39.208Z,21.75
2023-02-09T07:20:03.768Z,21.72
2023-02-09T07:23:25.965Z,21.66
2023-02-09T07:26:47.800Z,21.63
2023-02-09T07:30:15.823Z,21.57
2023-02-09T07:33:37.802Z,21.54
2023-02-09T07:36:59.716Z,21.49
2023-02-09T07:40:21.774Z,21.43
2023-02-09T07:43:44.078Z,21.39
2023-02-09T07:47:06.007Z,21.36
2023-02-09T07:50:27.914Z,21.31
2023-02-09T07:53:52.081Z,21.28
2023-02-09T07:57:14.033Z,21.26
2023-02-09T08:00:35.868Z,21.22
2023-02-09T08:04:00.147Z,21.17
2023-02-09T08:07:22.309Z,21.17
2023-02-09T08:10:44.309Z,20.99
2023-02-09T08:14:11.503Z,20.03
2023-02-09T08:17:33.428Z,18.73
2023-02-09T08:20:55.325Z,17.54
2023-02-09T08:24:19.003Z,16.46
2023-02-09T08:27:43.085Z,15.53
2023-02-09T08:31:05.090Z,14.72
2023-02-09T08:34:28.581Z,14.02
2023-02-09T08:37:50.370Z,13.39
2023-02-09T08:41:14.921Z,12.86
2023-02-09T08:44:36.669Z,12.35
2023-02-09T08:47:58.420Z,11.90
2023-02-09T08:51:20.461Z,11.50
2023-02-09T08:54:42.343Z,11.24
2023-02-09T08:58:05.035Z,10.99
2023-02-09T09:01:26.892Z,10.75
2023-02-09T09:04:49.012Z,10.50
2023-02-09T09:08:13.399Z,10.24
2023-02-09T09:11:35.193Z,9.98
2023-02-09T09:14:57.034Z,9.79
2023-02-09T09:18:19.143Z,9.66
2023-02-09T09:21:40.947Z,9.60
2023-02-09T09:25:03.488Z,9.60
2023-02-09T09:28:25.540Z,9.59
2023-02-09T09:31:47.678Z,9.61
2023-02-09T09:35:09.648Z,9.69
2023-02-09T09:38:39.802Z,9.80
2023-02-09T09:42:02.264Z,9.89
2023-02-09T09:45:27.170Z,9.92
2023-02-09T09:48:55.101Z,10.04
2023-02-09T09:52:23.161Z,10.26
2023-02-09T09:55:45.649Z,10.42
2023-02-09T09:59:15.481Z,10.54
2023-02-09T10:02:38.395Z,10.70
2023-02-09T10:06:05.053Z,10.87
2023-02-09T10:09:57.576Z,10.93
2023-02-09T10:13:34.543Z,11.02
2023-02-09T10:16:56.366Z,11.12
2023-02-09T10:20:18.473Z,11.19
2023-02-09T10:23:43.296Z,11.21
2023-02-09T10:27:19.872Z,11.14
2023-02-09T10:30:46.175Z,10.30
2023-02-09T10:34:08.165Z,9.75
2023-02-09T10:37:38.264Z,9.60
2023-02-09T10:41:01.245Z,9.59
2023-02-09T10:44:35.148Z,9.57
2023-02-09T10:47:58.964Z,9.76
2023-02-09T10:51:29.309Z,9.95
2023-02-09T10:55:02.310Z,10.07
2023-02-09T10:58:33.207Z,10.31
2023-02-09T11:02:00.604Z,10.78
2023-02-09T11:05:22.364Z,11.23
2023-02-09T11:08:48.080Z,11.62
2023-02-09T11:12:13.460Z,12.01
2023-02-09T11:15:39.604Z,12.35
2023-02-09T11:19:22.664Z,12.68
2023-02-09T11:22:59.540Z,12.99
2023-02-09T11:26:38.330Z,13.50
2023-02-09T11:30:36.999Z,13.83
2023-02-09T11:34:24.260Z,13.92
2023-02-09T11:37:58.729Z,14.33
2023-02-09T11:41:52.728Z,14.23
2023-02-09T11:45:16.714Z,15.09
2023-02-09T11:48:45.623Z,15.75
2023-02-09T11:52:08.624Z,15.91
2023-02-09T11:55:58.092Z,16.07
2023-02-09T11:59:29.184Z,15.76
2023-02-09T12:03:12.402Z,14.33
2023-02-09T12:06:40.068Z,13.70
2023-02-09T12:10:07.831Z,13.77
2023-02-09T12:13:40.497Z,13.88
2023-02-09T12:17:24.749Z,14.10
2023-02-09T12:20:51.579Z,14.34
2023-02-09T12:24:33.767Z,14.49
2023-02-09T12:28:14.890Z,14.60
2023-02-09T12:32:01.866Z,14.72
2023-02-09T12:35:38.699Z,14.92
2023-02-09T12:39:24.887Z,15.11
2023-02-09T12:43:09.713Z,15.26
2023-02-09T12:46:31.792Z,15.38
2023-02-09T12:50:04.059Z,15.52
2023-02-09T12:53:26.970Z,15.84
2023-02-09T12:56:48.804Z,15.92
2023-02-09T13:00:10.585Z,15.63
2023-02-09T13:03:34.051Z,15.38
2023-02-09T13:06:57.444Z,15.19
2023-02-09T13:10:50.095Z,14.95
2023-02-09T13:14:14.660Z,14.73
2023-02-09T13:17:39.332Z,14.60
2023-02-09T13:21:23.021Z,14.65
2023-02-09T13:25:23.858Z,14.72
2023-02-09T13:28:46.714Z,14.65
2023-02-09T13:32:18.031Z,14.56
2023-02-09T13:36:07.165Z,14.36
2023-02-09T13:39:38.166Z,14.18
2023-02-09T13:43:13.133Z,14.10
2023-02-09T13:46:35.519Z,14.02
2023-02-09T13:49:58.996Z,14.07
2023-02-09T13:57:01.174Z,14.02
2023-02-09T14:00:33.096Z,13.95
2023-02-09T14:04:00.170Z,13.92
2023-02-09T14:07:25.085Z,13.88
2023-02-09T14:10:55.489Z,13.87
2023-02-09T14:15:12.674Z,13.88
2023-02-09T14:18:52.922Z,13.90
2023-02-09T14:22:33.554Z,13.92
2023-02-09T14:26:28.456Z,13.92
2023-02-09T14:29:50.911Z,13.89
2023-02-09T14:33:24.857Z,13.88
2023-02-09T14:36:56.352Z,13.90
2023-02-09T14:40:29.875Z,13.99
2023-02-09T14:44:03.770Z,14.12
2023-02-09T14:47:35.141Z,14.24
2023-02-09T14:51:02.981Z,14.34
2023-02-09T14:54:28.296Z,14.45
2023-02-09T14:57:50.157Z,14.54
2023-02-09T15:01:12.106Z,14.68
2023-02-09T15:04:33.966Z,14.81
2023-02-09T15:08:03.139Z,14.97
2023-02-09T15:11:44.760Z,15.12
2023-02-09T15:15:06.860Z,15.29
2023-02-09T15:18:29.775Z,15.42
2023-02-09T15:22:06.310Z,15.59
2023-02-09T15:25:29.397Z,15.71
2023-02-09T15:28:51.271Z,15.82
2023-02-09T15:32:17.553Z,15.99
2023-02-09T15:35:41.437Z,16.48
2023-02-09T15:39:04.586Z,16.99
2023-02-09T15:42:45.364Z,17.41
2023-02-09T15:46:27.262Z,17.64
2023-02-09T15:49:49.232Z,17.68
2023-02-09T15:53:15.076Z,17.63
2023-02-09T15:56:37.458Z,17.59
2023-02-09T16:03:35.042Z,17.46
2023-02-09T16:06:56.905Z,17.39
2023-02-09T16:10:25.026Z,17.36
2023-02-09T16:13:47.816Z,17.32
2023-02-09T16:17:11.722Z,17.29
2023-02-09T16:20:38.924Z,17.26
2023-02-09T16:24:03.046Z,17.25
2023-02-09T16:27:28.796Z,17.24
2023-02-09T16:30:58.044Z,17.24
2023-02-09T16:34:19.959Z,17.26
2023-02-09T16:37:43.128Z,17.26
2023-02-09T16:41:05.196Z,17.27
2023-02-09T16:44:33.168Z,17.28
2023-02-09T16:47:59.119Z,17.27
2023-02-09T16:51:24.476Z,17.27
2023-02-09T16:54:55.201Z,17.28
2023-02-09T16:58:18.463Z,17.28
2023-02-09T17:01:40.561Z,17.30
2023-02-09T17:05:08.600Z,17.32
2023-02-09T17:08:33.320Z,17.35
2023-02-09T17:11:55.296Z,17.37
2023-02-09T17:15:28.919Z,17.38
2023-02-09T17:18:55.118Z,17.39
2023-02-09T17:22:17.429Z,17.42
2023-02-09T17:25:39.363Z,17.45
2023-02-09T17:29:01.395Z,17.44
2023-02-09T17:32:23.308Z,17.46
2023-02-09T17:36:10.505Z,17.47
2023-02-09T17:39:29.433Z,17.47
2023-02-09T17:42:52.846Z,17.49
2023-02-09T17:46:18.581Z,17.51
2023-02-09T17:49:40.554Z,17.52
2023-02-09T17:53:02.392Z,17.54
2023-02-09T17:56:24.284Z,17.54
2023-02-09T17:59:46.945Z,17.55
2023-02-09T18:03:22.945Z,17.56
2023-02-09T18:06:48.576Z,17.58
2023-02-09T18:15:16.646Z,17.62
2023-02-09T18:19:34.485Z,17.66
2023-02-09T18:23:26.675Z,17.66
2023-02-09T18:35:52.593Z,17.72
2023-02-09T18:42:58.169Z,17.71
2023-02-09T18:46:20.796Z,17.71
2023-02-09T18:49:42.747Z,17.71
2023-02-09T18:53:04.563Z,17.72
2023-02-09T18:56:28.573Z,17.73
2023-02-09T18:59:50.538Z,17.72
2023-02-09T19:03:13.212Z,17.74
2023-02-09T19:06:35.553Z,17.75
2023-02-09T19:09:57.528Z,17.74
2023-02-09T19:13:19.463Z,17.74
2023-02-09T19:16:41.463Z,17.73
2023-02-09T19:20:04.525Z,17.73
2023-02-09T19:23:26.396Z,17.73
2023-02-09T19:26:48.412Z,17.72
2023-02-09T19:30:14.272Z,17.74
2023-02-09T19:33:36.243Z,17.72
2023-02-09T19:36:58.208Z,17.73
2023-02-09T19:40:28.618Z,17.74
2023-02-09T19:43:55.230Z,17.75
2023-02-09T19:47:17.126Z,17.76
2023-02-09T19:50:38.951Z,17.77
2023-02-09T19:54:01.027Z,17.80
2023-02-09T19:57:23.068Z,17.80
2023-02-09T20:00:44.931Z,17.82
2023-02-09T20:04:09.428Z,17.83
2023-02-09T20:07:31.202Z,17.84
2023-02-09T20:10:52.984Z,17.85
2023-02-09T20:14:14.936Z,17.85
2023-02-09T20:17:36.918Z,17.86
2023-02-09T20:20:58.884Z,18.23
2023-02-09T20:24:20.932Z,20.43
2023-02-09T20:27:42.891Z,21.28
2023-02-09T20:31:06.442Z,21.58
2023-02-09T20:34:28.560Z,21.73
2023-02-09T20:37:52.973Z,21.77
2023-02-09T20:41:17.448Z,21.80
2023-02-09T20:45:00.697Z,21.73
2023-02-09T20:48:22.529Z,21.60
2023-02-09T20:51:46.027Z,21.46
2023-02-09T20:55:12.021Z,21.29
2023-02-09T20:58:33.859Z,21.14
2023-02-09T21:01:55.662Z,20.99
2023-02-09T21:05:17.510Z,20.85
2023-02-09T21:08:39.423Z,20.75
2023-02-09T21:12:01.148Z,20.64
2023-02-09T21:15:23.210Z,20.55
2023-02-09T21:18:45.862Z,20.45
2023-02-09T21:22:07.889Z,20.36
2023-02-09T21:25:29.803Z,20.27
2023-02-09T21:28:57.485Z,20.22
2023-02-09T21:32:19.445Z,20.17
2023-02-09T21:35:41.791Z,20.12
2023-02-09T21:39:03.856Z,20.08
2023-02-09T21:42:32.795Z,20.02
2023-02-09T21:45:54.824Z,19.93
2023-02-09T21:49:16.752Z,19.88
2023-02-09T21:52:38.713Z,19.81
2023-02-09T21:56:00.526Z,19.78
2023-02-09T21:59:22.372Z,19.75
2023-02-09T22:02:45.633Z,19.73
2023-02-09T22:06:07.557Z,19.68
2023-02-09T22:09:29.395Z,19.67
2023-02-09T22:12:52.315Z,19.64
2023-02-09T22:16:20.060Z,19.59
2023-02-09T22:19:44.126Z,19.56
2023-02-09T22:23:11.032Z,19.56
2023-02-09T22:26:33.467Z,19.56
2023-02-09T22:29:55.280Z,19.54
2023-02-09T22:33:20.322Z,19.53
2023-02-09T22:36:42.266Z,19.50
2023-02-09T22:40:09.401Z,19.49
2023-02-09T22:43:34.290Z,19.47
2023-02-09T22:46:57.351Z,19.48
2023-02-09T22:50:20.651Z,19.48
2023-02-09T22:53:47.089Z,19.48
2023-02-09T22:57:09.870Z,19.48
2023-02-09T23:00:34.226Z,19.46
2023-02-09T23:04:00.387Z,19.47
2023-02-09T23:07:24.407Z,19.46
2023-02-09T23:10:46.871Z,19.46
2023-02-09T23:14:11.237Z,19.43
2023-02-09T23:17:34.333Z,19.43
2023-02-09T23:20:56.137Z,19.43
2023-02-09T23:24:28.121Z,19.45
2023-02-09T23:27:53.523Z,19.45
2023-02-09T23:31:18.388Z,19.44
2023-02-09T23:34:41.091Z,19.45
2023-02-09T23:38:02.872Z,19.43
2023-02-09T23:41:26.365Z,19.43
2023-02-09T23:44:48.150Z,19.41
2023-02-09T23:48:10.603Z,19.40
2023-02-09T23:51:34.444Z,19.40
2023-02-09T23:54:56.267Z,19.42
2023-02-09T23:58:18.259Z,19.42
